Pittsville, Wisconsin
Current Conditions -  °F | °C
As of 3:43 AM on Friday 28 Nov 2014 (Local Time) from KMFI Reporting Station
Light Snow Light Snow  
Wind Chill: -2°   Ceiling: 3800
Heat Index:   Visibility: 5mi
Dew Point:   Wind: 6mph
Humidity: 80%   Direction: 160°SSE
Pressure: 30.21"   Gusts: NA
Location:  44.44°N, 90.12°W
Report Text: KMFI 280943Z AUTO 16005KT 5SM -SN OVC038 M13/M16 A3021 RMK AO2 P0000 T11331161
Loading
Personal Weather Stations






























Interactive Weather Map New forecast layout! Learn more

10-Day Weather Forecast

Advertisements
Track Severe Weather on mobile